createdAt,value
2022-12-13T00:00:46.147Z,99166.47
2022-12-13T00:03:13.581Z,99173.75
2022-12-13T00:05:43.000Z,99177.25
2022-12-13T00:08:10.512Z,99183.53
2022-12-13T00:10:37.945Z,99188.28
2022-12-13T00:13:05.211Z,99186.03
2022-12-13T00:15:32.368Z,99181.75
2022-12-13T00:17:59.814Z,99183.50
2022-12-13T00:20:26.980Z,99179.03
2022-12-13T00:22:54.176Z,99184.22
2022-12-13T00:25:21.741Z,99188.00
2022-12-13T00:27:48.900Z,99185.34
2022-12-13T00:30:16.084Z,99173.94
2022-12-13T00:32:43.562Z,99185.66
2022-12-13T00:35:10.729Z,99185.84
2022-12-13T00:37:37.905Z,99185.56
2022-12-13T00:40:05.497Z,99189.84
2022-12-13T00:42:32.749Z,99188.69
2022-12-13T00:44:59.927Z,99192.25
2022-12-13T00:47:27.500Z,99199.88
2022-12-13T00:49:54.770Z,99205.34
2022-12-13T00:52:21.917Z,99203.03
2022-12-13T00:54:49.448Z,99220.00
2022-12-13T00:57:16.600Z,99207.87
2022-12-13T00:59:43.781Z,99217.22
2022-12-13T01:02:11.249Z,99222.16
2022-12-13T01:04:38.426Z,99224.22
2022-12-13T01:07:05.564Z,99218.31
2022-12-13T01:09:33.813Z,99227.03
2022-12-13T01:12:05.602Z,99228.56
2022-12-13T01:14:36.326Z,99230.34
2022-12-13T01:17:04.855Z,99231.19
2022-12-13T01:19:32.803Z,99234.62
2022-12-13T01:22:01.916Z,99228.91
2022-12-13T01:24:29.823Z,99230.38
2022-12-13T01:26:57.393Z,99225.94
2022-12-13T01:29:26.007Z,99234.84
2022-12-13T01:31:53.603Z,99227.88
2022-12-13T01:34:21.864Z,99225.38
2022-12-13T01:36:58.067Z,99230.91
2022-12-13T01:39:26.536Z,99227.41
2022-12-13T01:41:59.836Z,99231.28
2022-12-13T01:44:46.210Z,99230.47
2022-12-13T01:47:13.703Z,99233.47
2022-12-13T01:49:41.313Z,99236.94
2022-12-13T01:52:08.965Z,99242.12
2022-12-13T01:54:37.573Z,99242.12
2022-12-13T01:57:05.552Z,99246.94
2022-12-13T01:59:33.898Z,99241.38
2022-12-13T02:02:01.470Z,99241.91
2022-12-13T02:04:30.555Z,99234.53
2022-12-13T02:06:57.763Z,99237.13
2022-12-13T02:09:24.926Z,99240.50
2022-12-13T02:11:52.367Z,99238.91
2022-12-13T02:14:19.560Z,99234.50
2022-12-13T02:16:57.676Z,99241.88
2022-12-13T02:19:35.155Z,99237.63
2022-12-13T02:22:20.807Z,99248.44
2022-12-13T02:24:56.416Z,99236.94
2022-12-13T02:27:35.346Z,99231.13
2022-12-13T02:30:30.542Z,99236.94
2022-12-13T02:33:00.904Z,99230.63
2022-12-13T02:35:31.883Z,99234.72
2022-12-13T02:38:06.016Z,99235.31
2022-12-13T02:40:35.052Z,99234.00
2022-12-13T02:43:04.156Z,99234.78
2022-12-13T02:45:32.607Z,99232.84
2022-12-13T02:48:00.935Z,99235.25
2022-12-13T02:50:28.965Z,99236.94
2022-12-13T02:52:56.183Z,99245.22
2022-12-13T02:55:27.949Z,99239.66
2022-12-13T02:57:55.650Z,99241.97
2022-12-13T03:00:27.836Z,99242.31
2022-12-13T03:02:59.804Z,99242.25
2022-12-13T03:06:04.363Z,99242.41
2022-12-13T03:08:36.748Z,99247.69
2022-12-13T03:11:08.688Z,99249.28
2022-12-13T03:13:39.166Z,99242.22
2022-12-13T03:16:25.223Z,99241.34
2022-12-13T03:18:53.399Z,99240.84
2022-12-13T03:21:22.278Z,99241.59
2022-12-13T03:23:49.447Z,99240.16
2022-12-13T03:26:24.417Z,99242.81
2022-12-13T03:28:51.689Z,99235.91
2022-12-13T03:31:19.366Z,99241.13
2022-12-13T03:33:46.636Z,99243.94
2022-12-13T03:36:13.805Z,99252.72
2022-12-13T03:38:41.257Z,99257.19
2022-12-13T03:41:12.520Z,99254.97
2022-12-13T03:43:40.503Z,99260.84
2022-12-13T03:46:08.408Z,99261.09
2022-12-13T03:48:35.783Z,99258.69
2022-12-13T03:51:03.325Z,99263.81
2022-12-13T03:53:33.541Z,99259.56
2022-12-13T03:56:05.881Z,99250.88
2022-12-13T03:58:34.821Z,99257.78
2022-12-13T04:01:06.256Z,99250.28
2022-12-13T04:03:34.038Z,99253.75
2022-12-13T04:06:01.204Z,99249.50
2022-12-13T04:08:28.393Z,99257.78
2022-12-13T04:10:55.848Z,99262.47
2022-12-13T04:13:35.175Z,99264.50
2022-12-13T04:16:03.060Z,99271.94
2022-12-13T04:18:30.487Z,99277.94
2022-12-13T04:20:58.135Z,99280.78
2022-12-13T04:23:25.547Z,99270.59
2022-12-13T04:25:52.723Z,99271.22
2022-12-13T04:28:22.230Z,99269.66
2022-12-13T04:30:53.430Z,99266.47
2022-12-13T04:33:21.733Z,99260.78
2022-12-13T04:35:49.270Z,99259.38
2022-12-13T04:38:16.719Z,99255.66
2022-12-13T04:40:43.866Z,99258.19
2022-12-13T04:43:11.058Z,99258.19
2022-12-13T04:45:38.526Z,99267.25
2022-12-13T04:48:05.928Z,99267.69
2022-12-13T04:50:33.281Z,99272.97
2022-12-13T04:53:00.913Z,99271.75
2022-12-13T04:55:28.155Z,99268.78
2022-12-13T04:57:55.292Z,99264.69
2022-12-13T05:00:23.341Z,99264.88
2022-12-13T05:02:50.754Z,99256.75
2022-12-13T05:05:18.544Z,99255.53
2022-12-13T05:07:46.669Z,99256.94
2022-12-13T05:10:31.975Z,99263.47
2022-12-13T05:13:01.731Z,99265.53
2022-12-13T05:15:30.193Z,99266.28
2022-12-13T05:18:09.798Z,99271.84
2022-12-13T05:20:39.361Z,99270.16
2022-12-13T05:23:06.576Z,99274.12
2022-12-13T05:25:34.573Z,99276.63
2022-12-13T05:28:26.820Z,99272.84
2022-12-13T05:30:49.321Z,99272.62
2022-12-13T05:33:16.749Z,99259.97
2022-12-13T05:35:46.655Z,99272.88
2022-12-13T05:38:13.989Z,99267.94
2022-12-13T05:40:41.448Z,99277.94
2022-12-13T05:43:22.090Z,99277.94
2022-12-13T05:45:50.400Z,99270.59
2022-12-13T05:48:24.548Z,99281.94
2022-12-13T05:51:10.815Z,99270.13
2022-12-13T05:53:42.054Z,99268.84
2022-12-13T05:56:10.449Z,99267.75
2022-12-13T05:58:38.313Z,99267.69
2022-12-13T06:01:13.452Z,99273.41
2022-12-13T06:03:41.689Z,99279.13
2022-12-13T06:06:09.794Z,99281.12
2022-12-13T06:08:37.126Z,99285.56
2022-12-13T06:11:11.242Z,99288.16
2022-12-13T06:13:43.972Z,99282.66
2022-12-13T06:16:23.043Z,99283.19
2022-12-13T06:19:03.296Z,99286.34
2022-12-13T06:21:41.228Z,99285.66
2022-12-13T06:24:13.720Z,99288.16
2022-12-13T06:26:41.141Z,99290.00
2022-12-13T06:29:08.297Z,99292.91
2022-12-13T06:31:35.494Z,99292.59
2022-12-13T06:34:14.910Z,99297.69
2022-12-13T06:36:42.854Z,99311.81
2022-12-13T06:39:11.012Z,99316.84
2022-12-13T06:41:38.213Z,99311.91
2022-12-13T06:44:05.351Z,99310.13
2022-12-13T06:46:33.040Z,99319.97
2022-12-13T06:49:00.346Z,99312.72
2022-12-13T06:51:32.597Z,99312.59
2022-12-13T06:54:02.320Z,99320.56
2022-12-13T06:56:30.128Z,99317.53
2022-12-13T06:59:01.388Z,99320.28
2022-12-13T07:01:37.431Z,99320.47
2022-12-13T07:04:29.007Z,99326.53
2022-12-13T07:07:01.301Z,99331.63
2022-12-13T07:09:32.467Z,99333.13
2022-12-13T07:11:59.924Z,99335.88
2022-12-13T07:14:27.093Z,99334.28
2022-12-13T07:16:59.583Z,99333.97
2022-12-13T07:19:42.201Z,99334.69
2022-12-13T07:22:09.420Z,99337.37
2022-12-13T07:24:36.866Z,99342.44
2022-12-13T07:27:04.425Z,99340.13
2022-12-13T07:29:31.609Z,99339.06
2022-12-13T07:32:01.335Z,99336.25
2022-12-13T07:34:29.771Z,99334.69
2022-12-13T07:36:56.954Z,99331.22
2022-12-13T07:39:26.229Z,99337.44
2022-12-13T07:41:55.113Z,99332.78
2022-12-13T07:44:22.360Z,99338.34
2022-12-13T07:46:49.877Z,99347.44
2022-12-13T07:49:17.513Z,99345.66
2022-12-13T07:51:44.672Z,99347.03
2022-12-13T07:54:12.278Z,99341.62
2022-12-13T07:56:39.672Z,99345.75
2022-12-13T07:59:06.812Z,99346.53
2022-12-13T08:01:34.836Z,99341.94
2022-12-13T08:04:03.026Z,99337.25
2022-12-13T08:06:34.284Z,99343.13
2022-12-13T08:09:01.403Z,99345.87
2022-12-13T08:11:29.016Z,99346.59
2022-12-13T08:13:56.186Z,99348.00
2022-12-13T08:16:26.425Z,99352.09
2022-12-13T08:19:02.424Z,99347.81
2022-12-13T08:24:23.850Z,99345.87
2022-12-13T08:26:51.055Z,99343.25
2022-12-13T08:29:22.258Z,99346.19
2022-12-13T08:31:51.167Z,99350.84
2022-12-13T08:34:18.596Z,99352.19
2022-12-13T08:36:45.718Z,99351.72
2022-12-13T08:39:13.177Z,99348.38
2022-12-13T08:41:40.573Z,99347.66
2022-12-13T08:44:07.756Z,99351.63
2022-12-13T08:46:35.212Z,99357.88
2022-12-13T08:49:02.451Z,99356.81
2022-12-13T08:51:35.579Z,99349.53
2022-12-13T08:54:11.115Z,99343.66
2022-12-13T08:56:38.900Z,99342.47
2022-12-13T08:59:11.342Z,99352.00
2022-12-13T09:01:38.563Z,99350.84
2022-12-13T09:04:05.761Z,99352.19
2022-12-13T09:06:33.210Z,99343.34
2022-12-13T09:09:00.403Z,99343.44
2022-12-13T09:11:33.232Z,99343.19
2022-12-13T09:14:05.920Z,99346.41
2022-12-13T09:16:36.466Z,99346.84
2022-12-13T09:19:25.438Z,99340.97
2022-12-13T09:22:02.550Z,99333.69
2022-12-13T09:24:36.280Z,99342.97
2022-12-13T09:27:09.277Z,99334.09
2022-12-13T09:29:37.820Z,99351.53
2022-12-13T09:32:05.505Z,99344.56
2022-12-13T09:34:36.214Z,99344.13
2022-12-13T09:37:03.382Z,99344.16
2022-12-13T09:39:30.853Z,99343.91
2022-12-13T09:42:01.372Z,99344.91
2022-12-13T09:44:30.880Z,99332.56
2022-12-13T09:47:01.519Z,99325.50
2022-12-13T09:49:35.288Z,99324.66
2022-12-13T09:52:10.656Z,99329.59
2022-12-13T09:54:47.763Z,99325.78
2022-12-13T09:57:30.644Z,99328.06
2022-12-13T10:00:01.789Z,99326.66
2022-12-13T10:02:40.167Z,99317.84
2022-12-13T10:05:23.308Z,99321.56
2022-12-13T10:07:51.512Z,99312.75
2022-12-13T10:10:19.052Z,99310.81
2022-12-13T10:12:47.720Z,99308.34
2022-12-13T10:15:22.289Z,99312.75
2022-12-13T10:17:54.848Z,99311.28
2022-12-13T10:20:25.917Z,99297.47
2022-12-13T10:23:30.229Z,99300.44
2022-12-13T10:25:45.050Z,99298.88
2022-12-13T10:28:12.588Z,99303.75
2022-12-13T10:30:40.622Z,99299.19
2022-12-13T10:33:12.855Z,99294.16
2022-12-13T10:35:40.945Z,99297.25
2022-12-13T10:38:08.030Z,99299.53
2022-12-13T10:40:36.196Z,99291.09
2022-12-13T10:43:07.645Z,99293.13
2022-12-13T10:45:34.974Z,99300.59
2022-12-13T10:48:04.392Z,99292.06
2022-12-13T10:50:32.164Z,99285.03
2022-12-13T10:53:00.147Z,99286.13
2022-12-13T10:55:30.991Z,99285.13
2022-12-13T10:57:59.811Z,99282.28
2022-12-13T11:00:32.062Z,99287.50
2022-12-13T11:02:59.639Z,99283.97
2022-12-13T11:05:30.782Z,99280.31
2022-12-13T11:08:11.838Z,99270.19
2022-12-13T11:10:39.288Z,99273.66
2022-12-13T11:13:06.685Z,99270.19
2022-12-13T11:15:35.642Z,99260.06
2022-12-13T11:18:04.790Z,99262.34
2022-12-13T11:20:34.182Z,99269.91
2022-12-13T11:23:03.033Z,99261.97
2022-12-13T11:25:43.285Z,99263.44
2022-12-13T11:28:26.749Z,99256.84
2022-12-13T11:31:08.553Z,99257.81
2022-12-13T11:33:48.426Z,99250.97
2022-12-13T11:36:25.749Z,99251.88
2022-12-13T11:38:59.097Z,99252.41
2022-12-13T11:41:48.971Z,99253.72
2022-12-13T11:44:34.520Z,99252.88
2022-12-13T11:47:02.014Z,99251.84
2022-12-13T11:49:39.256Z,99255.56
2022-12-13T11:52:15.874Z,99252.75
2022-12-13T11:54:46.040Z,99267.28
2022-12-13T11:57:17.419Z,99257.66
2022-12-13T11:59:45.565Z,99264.81
2022-12-13T12:02:17.124Z,99263.66
2022-12-13T12:04:48.210Z,99257.66
2022-12-13T12:07:32.472Z,99260.25
2022-12-13T12:10:03.661Z,99256.31
2022-12-13T12:12:35.064Z,99261.53
2022-12-13T12:15:05.258Z,99261.34
2022-12-13T12:17:42.587Z,99264.50
2022-12-13T12:20:13.496Z,99266.94
2022-12-13T12:22:43.674Z,99259.94
2022-12-13T12:25:32.288Z,99262.37
2022-12-13T12:28:28.976Z,99256.06
2022-12-13T12:30:56.736Z,99262.31
2022-12-13T12:33:32.752Z,99252.03
2022-12-13T12:36:18.763Z,99257.41
2022-12-13T12:39:04.788Z,99259.69
2022-12-13T12:41:45.272Z,99251.66
2022-12-13T12:44:34.465Z,99248.75
2022-12-13T12:49:57.849Z,99247.91
2022-12-13T12:52:28.111Z,99243.88
2022-12-13T12:55:03.598Z,99250.22
2022-12-13T12:58:04.012Z,99254.69
2022-12-13T13:00:35.296Z,99259.69
2022-12-13T13:03:18.873Z,99255.47
2022-12-13T13:06:02.123Z,99253.84
2022-12-13T13:08:40.682Z,99261.28
2022-12-13T13:11:24.414Z,99268.34
2022-12-13T13:14:01.747Z,99258.97
2022-12-13T13:16:38.369Z,99260.44
2022-12-13T13:19:06.244Z,99267.63
2022-12-13T13:21:34.587Z,99261.09
2022-12-13T13:24:01.890Z,99269.41
2022-12-13T13:26:35.869Z,99275.03
2022-12-13T13:29:27.308Z,99275.13
2022-12-13T13:32:28.853Z,99276.91
2022-12-13T13:35:16.670Z,99277.59
2022-12-13T13:37:48.689Z,99268.72
2022-12-13T13:40:31.758Z,99284.44
2022-12-13T13:43:05.367Z,99291.44
2022-12-13T13:45:51.541Z,99284.37
2022-12-13T13:48:29.007Z,99285.97
2022-12-13T13:50:56.338Z,99283.00
2022-12-13T13:53:24.049Z,99286.38
2022-12-13T13:56:02.215Z,99283.59
2022-12-13T13:58:29.806Z,99284.94
2022-12-13T14:01:15.712Z,99283.38
2022-12-13T14:03:50.585Z,99284.25
2022-12-13T14:06:18.689Z,99278.16
2022-12-13T14:08:50.460Z,99289.12
2022-12-13T14:11:24.576Z,99282.91
2022-12-13T14:14:04.189Z,99286.09
2022-12-13T14:16:31.355Z,99272.09
2022-12-13T14:19:01.559Z,99271.97
2022-12-13T14:21:37.891Z,99281.59
2022-12-13T14:24:12.477Z,99288.75
2022-12-13T14:26:55.029Z,99277.06
2022-12-13T14:29:29.568Z,99279.41
2022-12-13T14:31:57.068Z,99279.28
2022-12-13T14:34:25.741Z,99281.09
2022-12-13T14:36:56.779Z,99285.84
2022-12-13T14:39:26.091Z,99274.06
2022-12-13T14:41:56.773Z,99278.66
2022-12-13T14:44:26.784Z,99283.16
2022-12-13T14:47:00.967Z,99291.06
2022-12-13T14:49:29.324Z,99293.97
2022-12-13T14:52:03.739Z,99295.66
2022-12-13T14:54:41.736Z,99290.38
2022-12-13T14:57:20.517Z,99291.97
2022-12-13T14:59:50.559Z,99291.00
2022-12-13T15:02:30.942Z,99288.09
2022-12-13T15:05:03.915Z,99285.66
2022-12-13T15:07:32.052Z,99293.03
2022-12-13T15:10:03.719Z,99294.97
2022-12-13T15:12:32.175Z,99305.28
2022-12-13T15:15:00.127Z,99311.34
2022-12-13T15:17:28.791Z,99311.66
2022-12-13T15:20:00.714Z,99312.63
2022-12-13T15:22:29.455Z,99308.91
2022-12-13T15:25:00.137Z,99311.41
2022-12-13T15:27:41.682Z,99314.66
2022-12-13T15:30:15.659Z,99314.72
2022-12-13T15:33:01.793Z,99318.03
2022-12-13T15:35:28.980Z,99324.25
2022-12-13T15:37:56.414Z,99332.84
2022-12-13T15:40:25.175Z,99329.53
2022-12-13T15:42:52.319Z,99326.75
2022-12-13T15:45:29.230Z,99324.00
2022-12-13T15:48:00.463Z,99330.87
2022-12-13T15:50:35.419Z,99336.47
2022-12-13T15:53:04.005Z,99335.53
2022-12-13T15:55:38.363Z,99335.31
2022-12-13T15:58:17.514Z,99337.09
2022-12-13T16:00:48.706Z,99335.19
2022-12-13T16:03:20.376Z,99346.09
2022-12-13T16:05:59.021Z,99345.50
2022-12-13T16:08:29.897Z,99351.19
2022-12-13T16:11:00.304Z,99351.78
2022-12-13T16:13:34.421Z,99342.25
2022-12-13T16:16:09.628Z,99347.50
2022-12-13T16:18:51.913Z,99343.50
2022-12-13T16:21:19.305Z,99337.78
2022-12-13T16:23:48.443Z,99333.72
2022-12-13T16:26:21.317Z,99339.81
2022-12-13T16:28:48.859Z,99330.78
2022-12-13T16:31:17.476Z,99338.50
2022-12-13T16:33:45.601Z,99343.41
2022-12-13T16:36:13.137Z,99345.75
2022-12-13T16:38:40.277Z,99338.91
2022-12-13T16:41:08.387Z,99330.34
2022-12-13T16:43:40.683Z,99328.47
2022-12-13T16:47:11.875Z,99336.97
2022-12-13T16:48:55.365Z,99345.87
2022-12-13T16:51:22.737Z,99351.91
2022-12-13T16:53:49.937Z,99349.81
2022-12-13T16:56:21.794Z,99339.44
2022-12-13T16:58:50.512Z,99343.53
2022-12-13T17:01:19.835Z,99337.28
2022-12-13T17:03:47.542Z,99333.66
2022-12-13T17:06:15.043Z,99329.22
2022-12-13T17:08:42.752Z,99328.94
2022-12-13T17:11:14.596Z,99335.00
2022-12-13T17:13:44.994Z,99330.72
2022-12-13T17:16:12.376Z,99333.41
2022-12-13T17:18:42.990Z,99339.63
2022-12-13T17:21:11.128Z,99329.72
2022-12-13T17:23:38.349Z,99334.16
2022-12-13T17:26:09.907Z,99343.47
2022-12-13T17:28:37.650Z,99338.97
2022-12-13T17:31:06.399Z,99339.72
2022-12-13T17:33:34.030Z,99340.16
2022-12-13T17:36:03.308Z,99341.75
2022-12-13T17:38:31.243Z,99347.06
2022-12-13T17:41:00.730Z,99346.56
2022-12-13T17:43:34.690Z,99345.16
2022-12-13T17:46:03.776Z,99340.16
2022-12-13T17:48:37.793Z,99345.28
2022-12-13T17:51:08.422Z,99346.81
2022-12-13T17:53:36.442Z,99352.25
2022-12-13T17:56:04.678Z,99353.03
2022-12-13T17:58:32.286Z,99355.31
2022-12-13T18:00:59.993Z,99351.91
2022-12-13T18:03:27.953Z,99342.81
2022-12-13T18:05:56.874Z,99351.03
2022-12-13T18:08:24.278Z,99348.66
2022-12-13T18:11:08.640Z,99342.72
2022-12-13T18:13:40.404Z,99344.09
2022-12-13T18:16:08.750Z,99341.91
2022-12-13T18:18:35.969Z,99346.09
2022-12-13T18:21:14.239Z,99346.97
2022-12-13T18:23:41.965Z,99345.34
2022-12-13T18:26:10.219Z,99345.84
2022-12-13T18:28:38.236Z,99339.34
2022-12-13T18:31:07.672Z,99341.72
2022-12-13T18:33:35.817Z,99336.44
2022-12-13T18:36:03.330Z,99349.53
2022-12-13T18:38:36.520Z,99351.44
2022-12-13T18:41:15.420Z,99353.44
2022-12-13T18:43:43.498Z,99358.41
2022-12-13T18:46:11.210Z,99355.78
2022-12-13T18:48:38.678Z,99343.19
2022-12-13T18:51:07.581Z,99344.66
2022-12-13T18:53:35.165Z,99348.28
2022-12-13T18:56:03.417Z,99344.00
2022-12-13T18:58:34.089Z,99346.88
2022-12-13T19:01:01.938Z,99344.66
2022-12-13T19:03:29.995Z,99345.31
2022-12-13T19:05:58.378Z,99340.13
2022-12-13T19:08:28.803Z,99339.09
2022-12-13T19:10:56.957Z,99340.25
2022-12-13T19:13:25.608Z,99346.81
2022-12-13T19:15:53.824Z,99346.47
2022-12-13T19:18:21.096Z,99344.84
2022-12-13T19:20:52.237Z,99342.78
2022-12-13T19:23:19.801Z,99342.50
2022-12-13T19:25:48.752Z,99347.88
2022-12-13T19:28:17.639Z,99342.09
2022-12-13T19:30:46.029Z,99342.62
2022-12-13T19:33:13.881Z,99345.87
2022-12-13T19:35:43.365Z,99350.53
2022-12-13T19:38:10.699Z,99349.56
2022-12-13T19:40:39.016Z,99343.06
2022-12-13T19:43:06.942Z,99344.00
2022-12-13T19:45:34.404Z,99343.88
2022-12-13T19:48:01.558Z,99340.59
2022-12-13T19:50:29.517Z,99348.34
2022-12-13T19:52:56.960Z,99351.44
2022-12-13T19:55:24.115Z,99358.88
2022-12-13T19:57:51.788Z,99354.66
2022-12-13T20:00:19.026Z,99355.38
2022-12-13T20:02:46.791Z,99349.53
2022-12-13T20:05:34.018Z,99362.34
2022-12-13T20:08:01.569Z,99366.22
2022-12-13T20:10:29.024Z,99366.72
2022-12-13T20:13:16.213Z,99362.03
2022-12-13T20:15:47.300Z,99372.75
2022-12-13T20:18:15.295Z,99366.34
2022-12-13T20:21:14.160Z,99375.66
2022-12-13T20:23:48.789Z,99369.75
2022-12-13T20:26:18.908Z,99375.84
2022-12-13T20:28:46.359Z,99379.28
2022-12-13T20:31:18.520Z,99371.62
2022-12-13T20:33:45.751Z,99369.06
2022-12-13T20:36:24.193Z,99365.75
2022-12-13T20:38:56.975Z,99368.44
2022-12-13T20:41:25.486Z,99367.16
2022-12-13T20:43:53.604Z,99372.50
2022-12-13T20:46:21.436Z,99365.97
2022-12-13T20:48:49.215Z,99365.97
2022-12-13T20:51:21.260Z,99364.44
2022-12-13T20:53:49.246Z,99366.47
2022-12-13T20:56:20.854Z,99359.53
2022-12-13T20:58:48.115Z,99353.31
2022-12-13T21:01:37.895Z,99352.34
2022-12-13T21:04:06.513Z,99353.78
2022-12-13T21:06:36.034Z,99354.63
2022-12-13T21:09:03.851Z,99358.13
2022-12-13T21:11:37.315Z,99355.50
2022-12-13T21:14:12.375Z,99356.81
2022-12-13T21:16:45.267Z,99352.38
2022-12-13T21:19:17.085Z,99348.13
2022-12-13T21:21:44.272Z,99346.37
2022-12-13T21:24:12.920Z,99338.91
2022-12-13T21:26:40.512Z,99341.50
2022-12-13T21:29:08.013Z,99349.34
2022-12-13T21:31:35.497Z,99346.72
2022-12-13T21:34:03.514Z,99346.53
2022-12-13T21:36:31.976Z,99344.41
2022-12-13T21:39:00.654Z,99340.88
2022-12-13T21:41:28.312Z,99329.34
2022-12-13T21:43:55.572Z,99324.63
2022-12-13T21:46:25.938Z,99323.50
2022-12-13T21:48:56.996Z,99314.63
2022-12-13T21:51:24.497Z,99321.97
2022-12-13T21:53:52.096Z,99333.22
2022-12-13T21:56:39.337Z,99319.62
2022-12-13T21:59:17.012Z,99328.19
2022-12-13T22:02:03.072Z,99334.88
2022-12-13T22:04:30.688Z,99327.03
2022-12-13T22:06:57.926Z,99328.81
2022-12-13T22:09:25.107Z,99315.44
2022-12-13T22:11:52.672Z,99317.78
2022-12-13T22:14:19.886Z,99310.69
2022-12-13T22:16:47.254Z,99311.41
2022-12-13T22:19:15.531Z,99313.34
2022-12-13T22:21:42.708Z,99313.72
2022-12-13T22:24:09.922Z,99301.06
2022-12-13T22:26:37.701Z,99295.44
2022-12-13T22:29:04.955Z,99292.91
2022-12-13T22:31:32.448Z,99293.50
2022-12-13T22:33:59.925Z,99288.84
2022-12-13T22:36:27.122Z,99287.03
2022-12-13T22:38:54.339Z,99283.56
2022-12-13T22:41:21.826Z,99274.75
2022-12-13T22:43:49.129Z,99274.22
2022-12-13T22:46:17.424Z,99275.91
2022-12-13T22:48:45.477Z,99274.12
2022-12-13T22:51:13.748Z,99277.63
2022-12-13T22:53:41.434Z,99281.53
2022-12-13T22:56:27.051Z,99281.59
2022-12-13T22:58:54.705Z,99282.53
2022-12-13T23:01:23.194Z,99279.22
2022-12-13T23:03:50.550Z,99275.28
2022-12-13T23:06:19.145Z,99269.63
2022-12-13T23:08:48.992Z,99271.75
2022-12-13T23:11:34.932Z,99272.97
2022-12-13T23:14:03.012Z,99281.81
2022-12-13T23:16:30.945Z,99277.37
2022-12-13T23:19:24.107Z,99273.25
2022-12-13T23:21:48.584Z,99264.41
2022-12-13T23:24:15.958Z,99266.16
2022-12-13T23:26:43.093Z,99271.75
2022-12-13T23:29:10.891Z,99272.97
2022-12-13T23:31:39.221Z,99258.56
2022-12-13T23:34:06.622Z,99263.53
2022-12-13T23:36:34.178Z,99256.81
2022-12-13T23:39:02.125Z,99251.84
2022-12-13T23:41:33.690Z,99261.53
2022-12-13T23:44:01.601Z,99260.06
2022-12-13T23:46:30.192Z,99260.69
2022-12-13T23:48:57.999Z,99260.47
2022-12-13T23:51:25.881Z,99262.66
2022-12-13T23:53:53.231Z,99265.22
2022-12-13T23:56:20.841Z,99267.00
2022-12-13T23:58:48.491Z,99267.81
